Photo de Laille
https://tgftp.nws.noaa.gov/data/observations/metar/stations/LFRN.TXT2021/01/19 05:00 LFRN 190500Z AUTO 21013KT 9999 BKN009 OVC015 08/07 Q1017 TEMPO 20015G25KT 3000 RADZ
Rennes
couvert
Metar : 2021/01/19 05:00 LFRN 190500Z AUTO 21013KT 9999 BKN009 OVC015 08/07 Q1017 TEMPO 20015G25KT 3000 RADZ
Couverture nuageuse : Mostly Cloudy 900 ft Overcast 1500 ft
Pression de 30.03 inHg (1017 hPa)
Humidité : 93%
Température : 46°F (8°C)
Vent de SSW at 15 mph (24 km/h)
Visibilité : 6 miles (10 km)
Nantes
couvert
Metar : 2021/01/19 05:00 LFRS 190500Z AUTO 19008KT 9999 OVC019 07/04 Q1020 NOSIG
Couverture nuageuse : Overcast 1900 ft
Traduc : Partly cloudy 700 ft
Pression de 30.12 inHg (1020 hPa)
Humidité : 81%
Température : 45°F (7°C)
Point de rosée : 39°F (4°C)
Vent de S at 9 mph (15 km/h)
Visibilité : 6 miles (10 km)
Lannion
Légère bruine, couvert
Metar : 2021/01/19 05:00 LFRO 190500Z AUTO 23013KT 200V260 7000 -DZ OVC007 10/09 Q1016
Couverture nuageuse : Overcast 700 ft
Traduc : Partly cloudy 700 ft
Pression de 30 inHg (1016 hPa)
Humidité : 94%
Température : 50°F (10°C)
Point de rosée : 48°F (9°C)
Vent de SW at 15 mph (24 km/h)
Visibilité : 4 miles (7 km)
Dinard
couvert
Metar : 2021/01/19 05:00 LFRD 190500Z AUTO 21015KT 9999 OVC011 09/08 Q1015 TEMPO 3000 RADZ BKN007 BECMG 20015G30KT
Couverture nuageuse : Overcast 1100 ft
Traduc : Partly cloudy 700 ft
Pression de 29.97 inHg (1015 hPa)
Humidité : 94%
Température : 48°F (9°C)
Point de rosée : 46°F (8°C)
Vent de SSW at 17 mph (28 km/h)
Visibilité : 6 miles (10 km)
Brest
couvert
Metar : 2021/01/19 05:00 LFRB 190500Z AUTO 22019KT 9999 OVC010 10/09 Q1015 TEMPO 3000 RADZ BECMG 22015G30KT
Couverture nuageuse : Overcast 1000 ft
Traduc : Partly cloudy 700 ft
Pression de 29.97 inHg (1015 hPa)
Humidité : 94%
Température : 50°F (10°C)
Point de rosée : 48°F (9°C)
Vent de SW at 22 mph (35 km/h)
Visibilité : 6 miles (10 km)
Quimper
couvert
Metar : 2021/01/19 05:00 LFRQ 190500Z AUTO 22010KT 190V250 8000 OVC007 09/09 Q1017
Couverture nuageuse : Overcast 700 ft
Traduc : Partly cloudy 700 ft
Pression de 30.03 inHg (1017 hPa)
Humidité : 100%
Température : 48°F (9°C)
Point de rosée : 48°F (9°C)
Vent de SW at 12 mph (19 km/h)
Visibilité : 5 miles (8 km)
St Nazaire
couvert
Metar : 2021/01/19 05:00 LFRZ 190500Z AUTO 20016KT 9999 OVC021 09/07 Q1019 NOSIG
Couverture nuageuse : Overcast 2100 ft
Traduc : Partly cloudy 700 ft
Pression de 30.09 inHg (1019 hPa)
Humidité : 87%
Température : 48°F (9°C)
Point de rosée : 45°F (7°C)
Vent de SSW at 18 mph (30 km/h)
Visibilité : 6 miles (10 km)
St Brieuc
couvert
Metar : 2021/01/18 22:00 LFRT 182200Z AUTO 19010KT 150V240 9999 OVC009 09/08 Q1019
Couverture nuageuse : Overcast 900 ft
Traduc : Partly cloudy 700 ft
Pression de 30.09 inHg (1019 hPa)
Humidité : 94%
Température : 48°F (9°C)
Point de rosée : 46°F (8°C)
Vent de S at 12 mph (19 km/h)
Visibilité : 6 miles (10 km)
Lorient
couvert
Metar : 2021/01/19 05:00 LFRH 190500Z AUTO 22014KT 9999 BKN009 OVC015 09/08 Q1017 TEMPO 21015G25KT BECMG SCT010 BKN015
Couverture nuageuse : Mostly Cloudy 900 ft Overcast 1500 ft
Traduc : Partly cloudy 700 ft
Pression de 30.03 inHg (1017 hPa)
Humidité : 94%
Température : 48°F (9°C)
Point de rosée : 46°F (8°C)
Vent de SW at 16 mph (26 km/h)
Visibilité : 6 miles (10 km)
Vannes-Meucon
couvert
Metar : 2021/01/19 05:00 LFRV 190500Z AUTO 21007KT 180V250 9999 BKN010 OVC016 09/07 Q1017
Couverture nuageuse : Mostly Cloudy 1000 ft Overcast 1600 ft
Traduc : Partly cloudy 700 ft
Pression de 30.03 inHg (1017 hPa)
Humidité : 87%
Température : 48°F (9°C)
Point de rosée : 45°F (7°C)
Vent de SSW at 8 mph (13 km/h)
Visibilité : 6 miles (10 km)

 


   Weather Underground PWS IBRETAGN39      Weather Underground PWS IBRETAGN39Retour Météo-Laillé adhérent de Météo-Bretagne et d'Infoclimat. Données mises à jour en temps réel via Météolink Climatologie réalisée sous Wswin et GraphWeather.

Affichage prévisions météo de WeatherUnderground via script PHP de Saratoga.

Copyright 2012-2021